createdAt,value
2023-05-01T00:01:43.651Z,67.00
2023-05-01T00:04:11.745Z,65.25
2023-05-01T00:06:38.862Z,65.25
2023-05-01T00:09:07.352Z,66.00
2023-05-01T00:11:37.031Z,71.25
2023-05-01T00:14:03.639Z,69.50
2023-05-01T00:19:27.288Z,72.00
2023-05-01T00:21:59.154Z,72.00
2023-05-01T00:27:11.037Z,67.50
2023-05-01T00:29:41.073Z,71.75
2023-05-01T00:35:02.569Z,66.25
2023-05-01T00:37:37.327Z,66.75
2023-05-01T00:40:12.100Z,72.50
2023-05-01T00:43:08.003Z,68.50
2023-05-01T00:48:15.961Z,67.75
2023-05-01T00:50:48.546Z,70.50
2023-05-01T00:53:15.045Z,66.00
2023-05-01T00:55:42.225Z,70.75
2023-05-01T00:58:26.551Z,62.50
2023-05-01T01:00:53.250Z,68.00
2023-05-01T01:03:26.688Z,68.50
2023-05-01T01:06:18.005Z,65.00
2023-05-01T01:08:59.267Z,65.00
2023-05-01T01:11:56.814Z,62.00
2023-05-01T01:14:47.831Z,55.75
2023-05-01T01:17:21.589Z,61.25
2023-05-01T01:19:53.270Z,66.00
2023-05-01T01:22:24.005Z,61.00
2023-05-01T01:25:17.510Z,57.50
2023-05-01T01:28:15.109Z,66.00
2023-05-01T01:33:55.098Z,64.25
2023-05-01T01:36:44.951Z,66.50
2023-05-01T01:39:15.455Z,66.50
2023-05-01T01:41:47.456Z,65.00
2023-05-01T01:44:21.394Z,63.25
2023-05-01T01:46:49.247Z,58.50
2023-05-01T01:49:21.028Z,69.25
2023-05-01T01:51:49.447Z,69.75
2023-05-01T01:54:23.210Z,68.50
2023-05-01T01:56:51.971Z,66.75
2023-05-01T01:59:24.942Z,65.00
2023-05-01T02:01:53.623Z,70.50
2023-05-01T02:04:22.121Z,68.00
2023-05-01T02:06:51.212Z,71.00
2023-05-01T02:09:21.798Z,71.00
2023-05-01T02:11:49.769Z,73.25
2023-05-01T02:14:18.334Z,72.25
2023-05-01T02:16:45.362Z,71.50
2023-05-01T02:19:13.358Z,69.75
2023-05-01T02:21:40.649Z,67.50
2023-05-01T02:24:07.232Z,67.25
2023-05-01T02:26:40.976Z,63.75
2023-05-01T02:29:07.792Z,68.00
2023-05-01T02:31:34.486Z,66.00
2023-05-01T02:34:01.055Z,68.75
2023-05-01T02:36:27.952Z,64.75
2023-05-01T02:38:54.849Z,68.00
2023-05-01T02:41:22.570Z,67.00
2023-05-01T02:43:53.231Z,49.75
2023-05-01T02:46:21.072Z,65.25
2023-05-01T02:48:48.166Z,64.00
2023-05-01T02:51:14.695Z,51.75
2023-05-01T02:53:41.180Z,57.75
2023-05-01T02:56:08.424Z,15.75
2023-05-01T02:58:34.921Z,51.25
2023-05-01T03:01:03.519Z,50.75
2023-05-01T03:03:29.924Z,50.75
2023-05-01T03:08:21.547Z,45.80
2023-05-01T03:10:48.015Z,49.25
2023-05-01T03:13:14.460Z,50.75
2023-05-01T03:15:41.386Z,47.50
2023-05-01T03:18:08.246Z,49.00
2023-05-01T03:20:34.721Z,40.50
2023-05-01T03:23:01.660Z,34.00
2023-05-01T03:25:28.142Z,46.75
2023-05-01T03:27:55.374Z,47.50
2023-05-01T03:30:21.941Z,43.25
2023-05-01T03:32:48.436Z,44.75
2023-05-01T03:35:14.950Z,27.75
2023-05-01T03:37:41.450Z,44.00
2023-05-01T03:40:08.118Z,42.75
2023-05-01T03:42:34.483Z,39.50
2023-05-01T03:45:01.215Z,41.25
2023-05-01T03:47:27.661Z,38.25
2023-05-01T03:49:54.409Z,36.00
2023-05-01T03:52:21.048Z,28.75
2023-05-01T03:54:47.449Z,29.25
2023-05-01T03:57:14.733Z,34.50
2023-05-01T03:59:43.775Z,34.00
2023-05-01T04:02:10.400Z,36.50
2023-05-01T04:04:37.002Z,34.00
2023-05-01T04:07:03.831Z,28.50
2023-05-01T04:09:30.274Z,35.75
2023-05-01T04:11:56.799Z,34.00
2023-05-01T04:14:23.913Z,31.50
2023-05-01T04:16:51.241Z,39.00
2023-05-01T04:19:17.821Z,32.00
2023-05-01T04:21:44.291Z,38.00
2023-05-01T04:24:10.861Z,39.25
2023-05-01T04:26:37.318Z,38.25
2023-05-01T04:29:03.703Z,40.00
2023-05-01T04:31:30.257Z,40.00
2023-05-01T04:33:57.185Z,40.00
2023-05-01T04:36:23.693Z,37.75
2023-05-01T04:38:50.190Z,36.25
2023-05-01T04:41:16.681Z,38.25
2023-05-01T04:43:43.110Z,37.25
2023-05-01T04:46:09.667Z,30.67
2023-05-01T04:48:36.484Z,25.33
2023-05-01T04:51:04.097Z,29.33
2023-05-01T04:53:30.985Z,28.33
2023-05-01T04:55:57.380Z,26.00
2023-05-01T04:58:25.477Z,31.33
2023-05-01T05:00:51.901Z,26.67
2023-05-01T05:03:19.744Z,24.00
2023-05-01T05:05:46.891Z,27.33
2023-05-01T05:08:13.405Z,30.50
2023-05-01T05:10:39.873Z,32.00
2023-05-01T05:13:06.313Z,26.67
2023-05-01T05:15:32.831Z,25.00
2023-05-01T05:17:59.312Z,28.33
2023-05-01T05:20:26.286Z,29.33
2023-05-01T05:22:52.838Z,30.00
2023-05-01T05:25:19.351Z,34.00
2023-05-01T05:27:45.780Z,28.67
2023-05-01T05:30:12.366Z,28.67
2023-05-01T05:32:38.834Z,27.00
2023-05-01T05:35:05.694Z,31.67
2023-05-01T05:37:32.180Z,30.33
2023-05-01T05:39:58.827Z,31.00
2023-05-01T05:42:25.267Z,30.50
2023-05-01T05:44:51.698Z,30.75
2023-05-01T05:47:18.270Z,24.75
2023-05-01T05:49:44.736Z,26.75
2023-05-01T05:52:11.564Z,22.25
2023-05-01T05:54:38.074Z,24.50
2023-05-01T05:57:04.630Z,26.75
2023-05-01T05:59:31.018Z,21.50
2023-05-01T06:01:57.804Z,22.50
2023-05-01T06:04:24.453Z,20.50
2023-05-01T06:06:50.983Z,26.75
2023-05-01T06:09:19.173Z,21.00
2023-05-01T06:11:46.008Z,22.75
2023-05-01T06:14:12.374Z,22.00
2023-05-01T06:16:39.148Z,22.50
2023-05-01T06:19:06.090Z,23.25
2023-05-01T06:21:32.620Z,18.00
2023-05-01T06:23:59.004Z,20.50
2023-05-01T06:26:26.402Z,19.00
2023-05-01T06:28:52.784Z,23.75
2023-05-01T06:31:19.238Z,20.25
2023-05-01T06:33:45.864Z,16.00
2023-05-01T06:36:12.336Z,17.25
2023-05-01T06:38:39.051Z,19.25
2023-05-01T06:41:05.954Z,19.75
2023-05-01T06:43:32.688Z,18.75
2023-05-01T06:45:59.116Z,15.50
2023-05-01T06:48:25.467Z,15.75
2023-05-01T06:50:52.049Z,17.75
2023-05-01T06:53:18.478Z,14.75
2023-05-01T06:55:44.886Z,16.25
2023-05-01T06:58:22.740Z,15.00
2023-05-01T07:00:50.818Z,13.00
2023-05-01T07:03:17.350Z,14.75
2023-05-01T07:05:43.985Z,11.50
2023-05-01T07:08:10.522Z,17.75
2023-05-01T07:10:38.193Z,13.00
2023-05-01T07:13:05.760Z,15.25
2023-05-01T07:15:32.209Z,11.00
2023-05-01T07:17:58.681Z,13.00
2023-05-01T07:20:25.161Z,11.25
2023-05-01T07:22:51.631Z,11.75
2023-05-01T07:25:18.138Z,9.75
2023-05-01T07:27:44.602Z,10.00
2023-05-01T07:30:11.229Z,10.50
2023-05-01T07:32:37.940Z,9.75
2023-05-01T07:35:04.532Z,7.00
2023-05-01T07:37:31.390Z,7.75
2023-05-01T07:39:58.651Z,4.50
2023-05-01T07:42:26.513Z,8.00
2023-05-01T07:44:52.930Z,6.00
2023-05-01T07:47:19.508Z,5.50
2023-05-01T07:49:46.132Z,3.25
2023-05-01T07:52:12.577Z,3.75
2023-05-01T07:54:39.127Z,3.50
2023-05-01T07:57:06.557Z,6.50
2023-05-01T07:59:33.058Z,4.25
2023-05-01T08:01:59.488Z,3.75
2023-05-01T08:04:27.443Z,4.00
2023-05-01T08:06:54.092Z,4.00
2023-05-01T08:09:20.778Z,2.75
2023-05-01T08:11:47.220Z,5.25
2023-05-01T08:14:13.870Z,3.75
2023-05-01T08:16:40.378Z,4.75
2023-05-01T08:19:06.883Z,8.25
2023-05-01T08:21:33.402Z,6.25
2023-05-01T08:23:59.965Z,5.00
2023-05-01T08:26:26.476Z,6.00
2023-05-01T08:28:52.951Z,4.00
2023-05-01T08:31:19.497Z,5.00
2023-05-01T08:33:46.176Z,3.50
2023-05-01T08:36:12.794Z,3.75
2023-05-01T08:38:39.234Z,3.00
2023-05-01T08:41:06.143Z,3.00
2023-05-01T08:43:33.104Z,4.00
2023-05-01T08:46:05.770Z,5.00
2023-05-01T08:48:32.627Z,4.75
2023-05-01T08:50:59.837Z,3.00
2023-05-01T08:53:26.644Z,6.00
2023-05-01T08:55:56.502Z,4.00
2023-05-01T08:58:24.443Z,4.25
2023-05-01T09:00:51.035Z,2.00
2023-05-01T09:03:18.143Z,3.25
2023-05-01T09:05:46.587Z,3.75
2023-05-01T09:08:13.065Z,3.75
2023-05-01T09:10:42.973Z,3.75
2023-05-01T09:13:10.055Z,4.25
2023-05-01T09:15:36.646Z,4.00
2023-05-01T09:18:04.211Z,2.25
2023-05-01T09:20:31.731Z,1.25
2023-05-01T09:22:58.480Z,3.75
2023-05-01T09:25:24.978Z,3.75
2023-05-01T09:27:51.853Z,3.25
2023-05-01T09:30:34.750Z,2.75
2023-05-01T09:33:08.274Z,3.00
2023-05-01T09:35:48.369Z,3.25
2023-05-01T09:38:18.543Z,2.50
2023-05-01T09:40:45.144Z,3.50
2023-05-01T09:43:11.972Z,4.50
2023-05-01T09:45:40.272Z,4.50
2023-05-01T09:48:13.530Z,2.75
2023-05-01T09:50:42.304Z,3.75
2023-05-01T09:53:08.754Z,4.00
2023-05-01T09:55:35.364Z,2.50
2023-05-01T09:58:02.055Z,3.00
2023-05-01T10:00:30.154Z,4.00
2023-05-01T10:02:56.786Z,2.75
2023-05-01T10:05:23.660Z,3.00
2023-05-01T10:07:57.741Z,3.75
2023-05-01T10:10:24.341Z,2.75
2023-05-01T10:12:51.588Z,3.25
2023-05-01T10:15:25.590Z,1.75
2023-05-01T10:17:53.772Z,2.00
2023-05-01T10:20:20.966Z,1.75
2023-05-01T10:22:48.059Z,1.75
2023-05-01T10:25:15.101Z,3.00
2023-05-01T10:27:42.004Z,3.00
2023-05-01T10:30:09.166Z,2.00
2023-05-01T10:32:36.566Z,3.00
2023-05-01T10:35:09.492Z,2.50
2023-05-01T10:37:39.544Z,2.00
2023-05-01T10:40:24.516Z,2.00
2023-05-01T10:43:10.226Z,1.75
2023-05-01T10:45:36.827Z,1.25
2023-05-01T10:48:03.385Z,2.00
2023-05-01T10:50:30.261Z,2.00
2023-05-01T10:53:11.998Z,3.25
2023-05-01T10:55:39.081Z,2.25
2023-05-01T10:58:05.770Z,2.75
2023-05-01T11:00:34.207Z,2.00
2023-05-01T11:03:22.374Z,2.25
2023-05-01T11:05:58.183Z,1.50
2023-05-01T11:08:37.664Z,3.00
2023-05-01T11:11:22.922Z,2.00
2023-05-01T11:13:55.047Z,2.00
2023-05-01T11:16:40.011Z,3.25
2023-05-01T11:19:07.799Z,2.75
2023-05-01T11:21:38.481Z,2.75
2023-05-01T11:24:05.601Z,1.75
2023-05-01T11:26:32.798Z,2.25
2023-05-01T11:29:00.584Z,2.75
2023-05-01T11:31:28.238Z,2.00
2023-05-01T11:33:58.365Z,3.75
2023-05-01T11:36:25.038Z,2.00
2023-05-01T11:38:58.468Z,3.25
2023-05-01T11:41:25.470Z,2.75
2023-05-01T11:43:56.498Z,3.00
2023-05-01T11:46:33.423Z,1.75
2023-05-01T11:49:01.324Z,2.50
2023-05-01T11:51:28.245Z,2.00
2023-05-01T11:54:15.212Z,2.75
2023-05-01T11:56:42.769Z,3.00
2023-05-01T11:59:19.014Z,3.00
2023-05-01T12:01:46.424Z,2.00
2023-05-01T12:04:13.909Z,2.00
2023-05-01T12:06:44.875Z,2.00
2023-05-01T12:09:21.858Z,2.75
2023-05-01T12:11:52.693Z,2.25
2023-05-01T12:14:20.506Z,2.75
2023-05-01T12:16:47.185Z,1.75
2023-05-01T12:19:15.118Z,1.75
2023-05-01T12:21:41.871Z,0.25
2023-05-01T12:24:12.031Z,1.75
2023-05-01T12:26:38.665Z,3.00
2023-05-01T12:29:06.678Z,0.00
2023-05-01T12:31:33.632Z,2.00
2023-05-01T12:34:01.401Z,0.75
2023-05-01T12:36:28.655Z,1.00
2023-05-01T12:39:02.997Z,1.75
2023-05-01T12:41:38.233Z,1.00
2023-05-01T12:44:22.533Z,1.25
2023-05-01T12:46:56.443Z,2.00
2023-05-01T12:49:23.480Z,2.00
2023-05-01T12:51:50.700Z,2.50
2023-05-01T12:54:21.131Z,1.25
2023-05-01T12:56:47.693Z,2.50
2023-05-01T12:59:20.498Z,2.50
2023-05-01T13:01:47.140Z,1.75
2023-05-01T13:04:20.198Z,3.50
2023-05-01T13:06:46.995Z,2.75
2023-05-01T13:09:15.601Z,1.50
2023-05-01T13:11:42.136Z,2.00
2023-05-01T13:14:09.172Z,2.75
2023-05-01T13:16:44.550Z,2.00
2023-05-01T13:19:11.192Z,3.00
2023-05-01T13:21:45.952Z,1.67
2023-05-01T13:24:12.661Z,2.25
2023-05-01T13:26:39.114Z,1.75
2023-05-01T13:29:05.863Z,2.00
2023-05-01T13:31:32.651Z,2.00
2023-05-01T13:33:59.687Z,1.25
2023-05-01T13:36:27.502Z,2.00
2023-05-01T13:38:56.071Z,1.25
2023-05-01T13:41:24.324Z,2.25
2023-05-01T13:43:51.548Z,1.25
2023-05-01T13:46:18.906Z,2.00
2023-05-01T13:48:46.681Z,2.00
2023-05-01T13:51:13.902Z,1.50
2023-05-01T13:53:41.259Z,2.25
2023-05-01T13:56:13.276Z,2.00
2023-05-01T13:58:39.882Z,2.75
2023-05-01T14:01:16.597Z,1.75
2023-05-01T14:03:43.548Z,2.75
2023-05-01T14:06:13.917Z,2.25
2023-05-01T14:08:40.700Z,1.75
2023-05-01T14:11:07.805Z,2.00
2023-05-01T14:13:35.417Z,2.00
2023-05-01T14:16:02.306Z,2.50
2023-05-01T14:18:28.747Z,2.75
2023-05-01T14:20:55.117Z,1.25
2023-05-01T14:23:23.114Z,2.25
2023-05-01T14:25:49.559Z,3.00
2023-05-01T14:28:16.215Z,3.00
2023-05-01T14:30:42.688Z,2.75
2023-05-01T14:33:10.135Z,3.00
2023-05-01T14:35:38.074Z,7.00
2023-05-01T14:38:07.949Z,1.50
2023-05-01T14:40:34.720Z,2.75
2023-05-01T14:43:01.656Z,2.00
2023-05-01T14:45:28.304Z,3.25
2023-05-01T14:47:54.844Z,2.00
2023-05-01T14:50:22.685Z,1.25
2023-05-01T14:53:00.201Z,2.00
2023-05-01T14:55:32.047Z,2.00
2023-05-01T14:57:58.439Z,2.00
2023-05-01T15:00:25.040Z,4.00
2023-05-01T15:02:51.636Z,2.00
2023-05-01T15:05:18.215Z,1.00
2023-05-01T15:07:44.719Z,2.00
2023-05-01T15:10:11.158Z,2.25
2023-05-01T15:12:37.616Z,2.00
2023-05-01T15:15:04.216Z,2.25
2023-05-01T15:17:32.462Z,2.00
2023-05-01T15:19:59.068Z,2.00
2023-05-01T15:22:25.557Z,1.50
2023-05-01T15:24:52.119Z,2.25
2023-05-01T15:27:20.925Z,7.00
2023-05-01T15:29:47.333Z,3.25
2023-05-01T15:32:14.332Z,4.75
2023-05-01T15:34:41.444Z,4.00
2023-05-01T15:37:08.262Z,0.00
2023-05-01T15:39:34.639Z,3.25
2023-05-01T15:42:01.326Z,3.00
2023-05-01T15:44:28.753Z,2.00
2023-05-01T15:46:55.400Z,3.00
2023-05-01T15:49:21.949Z,3.00
2023-05-01T15:51:48.356Z,2.00
2023-05-01T15:54:17.771Z,1.75
2023-05-01T15:56:44.317Z,3.50
2023-05-01T15:59:10.814Z,4.50
2023-05-01T16:01:37.311Z,4.50
2023-05-01T16:04:04.533Z,3.00
2023-05-01T16:06:31.382Z,3.00
2023-05-01T16:08:58.268Z,2.75
2023-05-01T16:11:24.707Z,3.00
2023-05-01T16:13:52.799Z,2.00
2023-05-01T16:16:26.233Z,2.25
2023-05-01T16:18:55.013Z,0.00
2023-05-01T16:21:21.673Z,3.00
2023-05-01T16:23:48.244Z,8.75
2023-05-01T16:26:19.032Z,16.50
2023-05-01T16:28:45.447Z,27.00
2023-05-01T16:31:26.028Z,9.00
2023-05-01T16:33:53.998Z,5.50
2023-05-01T16:36:21.450Z,6.75
2023-05-01T16:38:47.934Z,5.00
2023-05-01T16:41:15.156Z,5.00
2023-05-01T16:43:41.591Z,5.25
2023-05-01T16:46:08.000Z,4.00
2023-05-01T16:48:34.673Z,6.00
2023-05-01T16:51:03.633Z,5.75
2023-05-01T16:53:32.134Z,9.25
2023-05-01T16:55:58.684Z,13.00
2023-05-01T16:58:26.107Z,7.25
2023-05-01T17:00:52.530Z,6.75
2023-05-01T17:03:18.964Z,7.00
2023-05-01T17:05:45.627Z,7.00
2023-05-01T17:08:12.092Z,7.00
2023-05-01T17:10:38.633Z,7.75
2023-05-01T17:13:06.562Z,7.25
2023-05-01T17:15:33.289Z,7.25
2023-05-01T17:17:59.751Z,5.75
2023-05-01T17:20:26.751Z,15.50
2023-05-01T17:22:53.162Z,19.75
2023-05-01T17:25:19.585Z,21.75
2023-05-01T17:27:46.219Z,14.25
2023-05-01T17:30:12.776Z,16.25
2023-05-01T17:32:39.345Z,15.50
2023-05-01T17:35:06.197Z,10.50
2023-05-01T17:37:33.141Z,12.75
2023-05-01T17:39:59.989Z,13.75
2023-05-01T17:42:26.680Z,12.50
2023-05-01T17:44:53.053Z,22.25
2023-05-01T17:47:19.643Z,19.00
2023-05-01T17:49:46.012Z,21.75
2023-05-01T17:52:12.471Z,18.00
2023-05-01T17:54:38.974Z,18.50
2023-05-01T17:57:05.486Z,35.00
2023-05-01T17:59:31.909Z,29.75
2023-05-01T18:01:58.706Z,26.50
2023-05-01T18:04:25.249Z,26.25
2023-05-01T18:06:52.212Z,27.25
2023-05-01T18:09:19.680Z,30.75
2023-05-01T18:11:46.691Z,24.50
2023-05-01T18:14:13.373Z,29.67
2023-05-01T18:16:40.313Z,34.67
2023-05-01T18:19:07.137Z,34.67
2023-05-01T18:21:33.920Z,34.33
2023-05-01T18:24:02.555Z,38.67
2023-05-01T18:26:29.595Z,37.67
2023-05-01T18:28:56.482Z,38.75
2023-05-01T18:31:23.734Z,37.33
2023-05-01T18:33:50.433Z,37.00
2023-05-01T18:36:16.778Z,36.00
2023-05-01T18:38:43.376Z,34.00
2023-05-01T18:41:09.772Z,33.33
2023-05-01T18:43:36.551Z,36.00
2023-05-01T18:46:03.027Z,32.33
2023-05-01T18:48:29.742Z,33.00
2023-05-01T18:51:07.946Z,34.75
2023-05-01T18:53:35.633Z,37.67
2023-05-01T18:56:02.068Z,39.00
2023-05-01T18:58:28.540Z,37.75
2023-05-01T19:00:55.537Z,40.00
2023-05-01T19:03:22.111Z,46.75
2023-05-01T19:05:48.625Z,47.00
2023-05-01T19:08:15.100Z,49.00
2023-05-01T19:10:42.541Z,55.00
2023-05-01T19:13:08.987Z,54.50
2023-05-01T19:15:35.857Z,69.50
2023-05-01T19:18:02.749Z,77.50
2023-05-01T19:20:29.380Z,69.75
2023-05-01T19:22:55.865Z,63.75
2023-05-01T19:25:22.317Z,63.25
2023-05-01T19:27:50.927Z,59.50
2023-05-01T19:30:17.896Z,72.00
2023-05-01T19:32:46.284Z,60.75
2023-05-01T19:40:52.758Z,69.75
2023-05-01T20:07:19.457Z,52.75
2023-05-01T20:13:06.462Z,37.25
2023-05-01T20:15:34.024Z,40.75
2023-05-01T20:18:07.285Z,42.50
2023-05-01T20:20:38.105Z,40.00
2023-05-01T20:23:16.018Z,43.00
2023-05-01T20:25:49.827Z,30.67
2023-05-01T20:28:20.109Z,42.25
2023-05-01T20:30:48.656Z,37.75
2023-05-01T20:33:19.793Z,31.00
2023-05-01T20:35:49.174Z,37.50
2023-05-01T20:38:16.035Z,36.75
2023-05-01T20:40:43.250Z,37.00
2023-05-01T20:43:10.292Z,29.67
2023-05-01T20:45:37.797Z,35.50
2023-05-01T20:48:08.627Z,33.50
2023-05-01T20:50:44.283Z,30.67
2023-05-01T20:53:10.834Z,29.00
2023-05-01T20:55:40.528Z,25.67
2023-05-01T20:58:10.383Z,28.00
2023-05-01T21:00:42.360Z,29.75
2023-05-01T21:03:11.333Z,15.67
2023-05-01T21:05:44.013Z,22.67
2023-05-01T21:08:10.946Z,23.67
2023-05-01T21:10:38.273Z,26.00
2023-05-01T21:13:04.810Z,28.00
2023-05-01T21:19:06.525Z,24.67
2023-05-01T21:22:06.721Z,28.25
2023-05-01T21:24:38.868Z,29.25
2023-05-01T21:30:12.845Z,27.25
2023-05-01T21:32:41.170Z,29.25
2023-05-01T21:35:12.006Z,34.00
2023-05-01T21:37:55.030Z,30.50
2023-05-01T21:40:45.949Z,23.00
2023-05-01T21:45:55.706Z,27.75
2023-05-01T21:51:14.323Z,34.75
2023-05-01T21:59:38.079Z,28.25
2023-05-01T22:16:51.324Z,22.50
2023-05-01T22:19:30.831Z,25.25
2023-05-01T22:33:02.902Z,24.75
2023-05-01T22:38:12.524Z,29.50
2023-05-01T22:41:06.326Z,32.50
2023-05-01T22:43:51.949Z,33.00
2023-05-01T22:46:36.633Z,32.50
2023-05-01T22:52:36.332Z,31.75
2023-05-01T22:55:05.531Z,38.25
2023-05-01T23:06:31.703Z,45.00
2023-05-01T23:09:01.201Z,46.00
2023-05-01T23:14:17.486Z,39.50
2023-05-01T23:16:45.132Z,46.00
2023-05-01T23:19:35.932Z,47.25
2023-05-01T23:22:12.780Z,49.75
2023-05-01T23:24:51.112Z,48.25
2023-05-01T23:27:19.014Z,55.25
2023-05-01T23:29:52.668Z,53.25
2023-05-01T23:32:31.756Z,52.25
2023-05-01T23:35:21.153Z,54.50
2023-05-01T23:37:50.456Z,56.50
2023-05-01T23:40:18.580Z,52.25
2023-05-01T23:42:50.590Z,53.75
2023-05-01T23:45:17.468Z,54.25
2023-05-01T23:47:44.195Z,55.25
2023-05-01T23:50:11.606Z,51.50
2023-05-01T23:52:42.497Z,55.00
2023-05-01T23:55:13.448Z,50.50
2023-05-01T23:57:43.524Z,59.25
